Time;durP1;ratioP1;P1;durP2;ratioP2;P2;SDS_P1;SDS_P2;PMS_P1;PMS_P2;Temp;Humidity;BMP_temperature;BMP_pressure;BME280_temperature;BME280_humidity;BME280_pressure;Samples;Min_cycle;Max_cycle;Signal;HPM_P1;HPM_P2
2020/12/23 00:01:18;;;;;;;1.60;0.80;;;21.20;56.50;;;;;;5030813;28;20083;-50
2020/12/23 00:03:44;;;;;;;1.42;0.75;;;21.20;56.40;;;;;;5030156;28;20116;-47
2020/12/23 00:06:10;;;;;;;0.80;0.65;;;21.20;56.40;;;;;;5029607;28;20108;-47
2020/12/23 00:08:35;;;;;;;1.02;0.55;;;21.20;56.40;;;;;;5021397;28;20049;-61
2020/12/23 00:11:01;;;;;;;1.38;0.85;;;21.10;56.30;;;;;;5025272;28;20387;-43
2020/12/23 00:13:27;;;;;;;0.85;0.60;;;21.20;56.40;;;;;;5028814;28;20116;-50
2020/12/23 00:15:53;;;;;;;1.33;0.60;;;21.10;56.20;;;;;;5052614;28;20039;-50
2020/12/23 00:18:18;;;;;;;0.68;0.52;;;21.20;56.30;;;;;;5030796;28;20095;-49
2020/12/23 00:20:44;;;;;;;1.08;0.50;;;21.10;56.30;;;;;;5029934;28;20037;-56
2020/12/23 00:23:09;;;;;;;0.90;0.50;;;21.20;56.30;;;;;;5030429;28;20466;-49
2020/12/23 00:25:35;;;;;;;0.47;0.40;;;21.10;56.20;;;;;;5029630;28;20462;-60
2020/12/23 00:28:01;;;;;;;1.42;0.60;;;21.10;56.20;;;;;;5029277;28;20029;-47
2020/12/23 00:30:27;;;;;;;1.52;0.60;;;21.10;56.20;;;;;;5030543;28;20467;-49
2020/12/23 00:32:52;;;;;;;1.30;0.70;;;21.10;56.20;;;;;;5030043;28;20076;-49
2020/12/23 00:35:18;;;;;;;1.13;0.55;;;21.20;56.20;;;;;;5031698;28;20038;-52
2020/12/23 00:37:44;;;;;;;1.60;0.65;;;21.10;56.10;;;;;;5030297;28;20030;-48
2020/12/23 00:40:09;;;;;;;2.38;0.68;;;21.10;56.20;;;;;;5031656;28;20119;-51
2020/12/23 00:42:35;;;;;;;1.08;0.60;;;21.10;56.20;;;;;;5030834;28;20029;-60
2020/12/23 00:45:01;;;;;;;1.15;0.50;;;21.10;56.10;;;;;;5031486;28;20459;-48
2020/12/23 00:47:27;;;;;;;0.95;0.60;;;21.10;56.10;;;;;;5031063;28;20040;-45
2020/12/23 00:49:53;;;;;;;0.70;0.50;;;21.10;56.10;;;;;;5030791;28;20029;-43
2020/12/23 00:52:18;;;;;;;1.08;0.52;;;21.10;56.10;;;;;;5031152;28;20474;-51
2020/12/23 00:54:44;;;;;;;1.05;0.68;;;21.10;56.10;;;;;;5022405;28;20029;-48
2020/12/23 00:57:10;;;;;;;0.90;0.60;;;21.10;56.00;;;;;;5031437;28;20117;-49
2020/12/23 00:59:35;;;;;;;0.95;0.40;;;21.10;56.00;;;;;;5030447;28;20036;-55
2020/12/23 01:02:02;;;;;;;0.65;0.50;;;21.10;56.00;;;;;;5031777;28;20033;-48
2020/12/23 01:04:29;;;;;;;0.70;0.52;;;21.10;55.90;;;;;;5032283;28;20026;-49
2020/12/23 01:06:55;;;;;;;0.90;0.68;;;21.10;56.00;;;;;;5029177;28;20612;-47
2020/12/23 01:09:21;;;;;;;0.90;0.57;;;21.10;56.10;;;;;;5023226;28;20117;-41
2020/12/23 01:11:48;;;;;;;0.88;0.63;;;21.10;56.00;;;;;;5030479;28;20459;-47
2020/12/23 01:14:15;;;;;;;0.70;0.50;;;21.10;55.90;;;;;;5031260;28;20380;-56
2020/12/23 01:16:41;;;;;;;0.98;0.60;;;21.10;56.00;;;;;;5030615;28;20053;-54
2020/12/23 01:19:06;;;;;;;1.95;0.73;;;21.10;55.90;;;;;;5031325;28;20056;-47
2020/12/23 01:21:32;;;;;;;1.10;0.50;;;21.10;55.90;;;;;;5030745;28;20030;-47
2020/12/23 01:23:57;;;;;;;0.65;0.45;;;21.10;55.80;;;;;;5030654;28;20068;-47
2020/12/23 01:26:23;;;;;;;1.08;0.50;;;21.10;55.80;;;;;;5031016;28;20022;-46
2020/12/23 01:28:49;;;;;;;1.00;0.50;;;21.10;55.80;;;;;;5045434;28;20026;-48
2020/12/23 01:31:14;;;;;;;1.27;1.08;;;21.10;55.80;;;;;;5031118;28;20041;-44
2020/12/23 01:33:40;;;;;;;0.88;0.50;;;21.10;55.80;;;;;;5030407;28;20463;-48
2020/12/23 01:36:06;;;;;;;0.60;0.45;;;21.10;55.80;;;;;;5031086;28;20459;-50
2020/12/23 01:38:31;;;;;;;1.05;0.70;;;21.10;55.80;;;;;;5030021;28;20450;-47
2020/12/23 01:40:59;;;;;;;0.80;0.65;;;21.10;55.90;;;;;;5029914;28;20171;-50
2020/12/23 01:43:26;;;;;;;1.00;0.50;;;21.10;55.90;;;;;;5030735;28;20108;-48
2020/12/23 01:45:52;;;;;;;0.55;0.50;;;21.10;55.80;;;;;;5030173;28;20038;-47
2020/12/23 01:48:21;;;;;;;0.93;0.45;;;21.10;55.80;;;;;;5031014;28;20037;-47
2020/12/23 01:50:48;;;;;;;0.60;0.47;;;21.10;55.90;;;;;;5029984;28;20449;-46
2020/12/23 01:53:18;;;;;;;2.17;0.60;;;21.00;55.70;;;;;;5030869;28;20033;-46
2020/12/23 01:55:47;;;;;;;2.10;0.50;;;21.10;55.80;;;;;;5030415;28;20030;-46
2020/12/23 01:58:13;;;;;;;1.42;0.63;;;21.10;56.30;;;;;;5030662;28;20107;-48
2020/12/23 02:00:40;;;;;;;0.60;0.50;;;21.10;55.70;;;;;;5029640;28;20034;-51
2020/12/23 02:03:11;;;;;;;0.75;0.60;;;21.10;55.70;;;;;;5030926;28;20029;-54
2020/12/23 02:05:38;;;;;;;0.73;0.47;;;21.10;55.70;;;;;;5030264;28;20029;-63
2020/12/23 02:08:04;;;;;;;0.65;0.47;;;21.00;55.80;;;;;;5031089;28;20037;-47
2020/12/23 02:10:31;;;;;;;1.95;0.50;;;21.00;55.80;;;;;;5030580;28;20112;-47
2020/12/23 02:13:00;;;;;;;0.65;0.50;;;21.10;55.60;;;;;;5032494;28;20022;-47
2020/12/23 02:15:26;;;;;;;1.23;0.50;;;21.10;55.60;;;;;;5033926;28;20036;-48
2020/12/23 02:17:52;;;;;;;0.60;0.40;;;21.10;55.60;;;;;;5033521;28;20364;-44
2020/12/23 02:20:18;;;;;;;0.68;0.68;;;21.00;55.70;;;;;;5034119;28;20045;-43
2020/12/23 02:22:46;;;;;;;0.93;0.50;;;21.10;55.50;;;;;;5033139;28;20029;-48
2020/12/23 02:25:13;;;;;;;1.23;0.57;;;21.00;55.50;;;;;;5034172;28;20025;-47
2020/12/23 02:27:40;;;;;;;1.05;0.60;;;21.00;55.50;;;;;;5033335;28;20038;-61
2020/12/23 02:30:08;;;;;;;1.73;0.60;;;21.00;55.50;;;;;;5033762;28;20040;-46
2020/12/23 02:32:34;;;;;;;0.68;0.52;;;21.00;55.50;;;;;;5034058;28;20071;-47
2020/12/23 02:35:00;;;;;;;1.42;0.45;;;21.00;55.60;;;;;;5032868;28;20029;-57
2020/12/23 02:37:26;;;;;;;0.70;0.30;;;21.00;55.50;;;;;;5032834;28;20083;-46
2020/12/23 02:39:54;;;;;;;0.70;0.60;;;21.00;55.40;;;;;;5032702;28;20041;-46
2020/12/23 02:42:21;;;;;;;0.43;0.40;;;21.00;55.50;;;;;;5033904;28;20033;-53
2020/12/23 02:44:47;;;;;;;1.83;0.57;;;21.00;55.50;;;;;;5032855;28;20112;-46
2020/12/23 02:47:14;;;;;;;0.93;0.60;;;21.00;55.40;;;;;;5033744;28;20043;-46
2020/12/23 02:49:40;;;;;;;0.50;0.40;;;21.00;55.40;;;;;;5032801;28;20029;-61
2020/12/23 02:52:06;;;;;;;0.75;0.50;;;21.00;55.30;;;;;;5033395;28;20510;-45
2020/12/23 02:54:33;;;;;;;0.75;0.65;;;21.00;55.30;;;;;;5033387;28;20383;-47
2020/12/23 02:57:00;;;;;;;0.55;0.30;;;21.00;55.40;;;;;;5032995;28;20114;-45
2020/12/23 02:59:25;;;;;;;0.70;0.50;;;21.00;55.30;;;;;;5033362;28;20371;-47
2020/12/23 03:01:51;;;;;;;1.73;0.70;;;21.00;55.30;;;;;;5032645;28;20032;-47
2020/12/23 03:04:17;;;;;;;0.90;0.40;;;21.00;55.30;;;;;;5033435;28;20034;-49
2020/12/23 03:06:42;;;;;;;1.63;0.40;;;21.00;55.30;;;;;;5022152;28;20022;-47
2020/12/23 03:09:09;;;;;;;0.90;0.47;;;21.00;55.30;;;;;;5033019;28;20061;-47
2020/12/23 03:11:35;;;;;;;1.98;0.50;;;21.00;55.20;;;;;;5032163;28;20044;-47
2020/12/23 03:14:02;;;;;;;1.67;0.50;;;21.00;55.20;;;;;;5031568;28;20021;-46
2020/12/23 03:16:28;;;;;;;0.55;0.43;;;21.00;55.20;;;;;;5032789;28;20115;-47
2020/12/23 03:18:54;;;;;;;0.82;0.50;;;21.00;55.20;;;;;;5032384;28;20053;-47
2020/12/23 03:21:19;;;;;;;0.45;0.30;;;21.00;55.20;;;;;;5031848;28;20041;-47
2020/12/23 03:23:45;;;;;;;0.68;0.40;;;21.00;55.20;;;;;;5031784;28;20045;-44
2020/12/23 03:26:11;;;;;;;0.60;0.43;;;21.00;55.20;;;;;;5032868;28;20079;-55
2020/12/23 03:28:37;;;;;;;1.58;0.40;;;21.00;55.20;;;;;;5032581;28;20395;-50
2020/12/23 03:31:03;;;;;;;1.20;0.50;;;21.00;55.20;;;;;;5032358;28;20033;-48
2020/12/23 03:33:29;;;;;;;1.88;0.40;;;21.00;55.20;;;;;;5032678;28;20029;-58
2020/12/23 03:35:56;;;;;;;1.95;0.50;;;21.00;55.20;;;;;;5031671;28;20071;-48
2020/12/23 03:38:21;;;;;;;0.47;0.43;;;21.00;55.20;;;;;;5033114;28;20025;-45
2020/12/23 03:40:47;;;;;;;1.08;0.50;;;21.00;55.40;;;;;;5031969;28;20117;-46
2020/12/23 03:43:12;;;;;;;1.42;0.40;;;21.00;55.10;;;;;;5032815;28;20038;-47
2020/12/23 03:45:38;;;;;;;0.80;0.68;;;21.00;55.10;;;;;;5031922;28;20037;-61
2020/12/23 03:48:04;;;;;;;0.85;0.57;;;21.00;55.10;;;;;;5032179;28;20078;-47
2020/12/23 03:50:30;;;;;;;0.60;0.50;;;21.00;55.10;;;;;;5032416;28;20033;-51
2020/12/23 03:52:56;;;;;;;0.90;0.52;;;21.00;55.00;;;;;;5032159;28;20028;-47
2020/12/23 03:55:22;;;;;;;0.47;0.47;;;21.00;55.00;;;;;;5032219;28;20048;-40
2020/12/23 03:57:47;;;;;;;1.25;0.60;;;21.00;55.00;;;;;;5031570;28;20029;-59
2020/12/23 04:00:13;;;;;;;0.70;0.50;;;21.00;55.00;;;;;;5032403;28;20070;-49
2020/12/23 04:02:39;;;;;;;0.82;0.43;;;21.00;55.00;;;;;;5032034;28;20108;-60
2020/12/23 04:05:07;;;;;;;1.52;0.60;;;21.00;55.00;;;;;;5031464;28;20083;-45
2020/12/23 04:07:32;;;;;;;0.57;0.35;;;21.00;55.00;;;;;;5032291;28;20021;-46
2020/12/23 04:09:58;;;;;;;1.30;0.40;;;21.00;54.90;;;;;;5031148;28;20037;-47
2020/12/23 04:12:24;;;;;;;0.60;0.40;;;21.00;55.00;;;;;;5031253;28;20032;-47
2020/12/23 04:14:49;;;;;;;0.77;0.40;;;21.00;55.00;;;;;;5031149;28;20155;-47
2020/12/23 04:17:15;;;;;;;1.20;0.35;;;21.00;54.90;;;;;;5031772;28;20493;-47
2020/12/23 04:19:41;;;;;;;0.43;0.43;;;21.00;54.90;;;;;;5031261;28;20044;-61
2020/12/23 04:22:06;;;;;;;1.73;0.35;;;21.00;54.90;;;;;;5031274;28;20036;-48
2020/12/23 04:24:32;;;;;;;0.80;0.60;;;21.00;54.90;;;;;;5031932;28;20021;-48
2020/12/23 04:26:58;;;;;;;0.50;0.40;;;21.00;54.90;;;;;;5031059;28;20462;-47
2020/12/23 04:29:24;;;;;;;0.75;0.50;;;21.00;54.90;;;;;;5031745;28;20029;-49
2020/12/23 04:31:50;;;;;;;0.65;0.65;;;20.90;54.80;;;;;;5031152;28;20394;-58
2020/12/23 04:34:16;;;;;;;1.33;0.57;;;21.00;54.90;;;;;;5030902;28;20109;-49
2020/12/23 04:36:41;;;;;;;0.65;0.40;;;21.00;54.80;;;;;;5031180;28;20049;-61
2020/12/23 04:39:07;;;;;;;0.95;0.40;;;21.00;54.90;;;;;;5031246;28;20108;-49
2020/12/23 04:41:34;;;;;;;1.42;0.40;;;21.00;54.80;;;;;;5031349;28;20441;-47
2020/12/23 04:44:00;;;;;;;0.50;0.50;;;21.00;54.80;;;;;;5031152;28;20035;-47
2020/12/23 04:46:29;;;;;;;0.65;0.50;;;21.00;54.80;;;;;;5031039;28;20068;-48
2020/12/23 04:48:59;;;;;;;1.40;0.95;;;21.00;54.80;;;;;;5030845;28;20072;-49
2020/12/23 04:51:33;;;;;;;0.95;0.45;;;21.00;54.80;;;;;;5031082;28;20033;-47
2020/12/23 04:54:01;;;;;;;1.50;0.30;;;20.90;54.80;;;;;;5030930;28;20427;-49
2020/12/23 04:56:29;;;;;;;0.95;0.55;;;21.00;54.90;;;;;;5031545;28;20050;-41
2020/12/23 04:58:56;;;;;;;0.40;0.40;;;20.90;54.80;;;;;;5030609;28;20029;-48
2020/12/23 05:01:22;;;;;;;0.55;0.43;;;20.90;54.80;;;;;;5031541;28;20034;-48
2020/12/23 05:03:48;;;;;;;0.73;0.40;;;21.00;54.80;;;;;;5030305;28;20037;-47
2020/12/23 05:06:14;;;;;;;0.73;0.47;;;20.90;54.80;;;;;;5031543;28;20025;-47
2020/12/23 05:08:40;;;;;;;1.10;0.40;;;21.00;55.50;;;;;;5030318;28;20026;-49
2020/12/23 05:11:07;;;;;;;1.13;0.50;;;21.00;54.80;;;;;;5030497;28;20090;-47
2020/12/23 05:13:33;;;;;;;0.32;0.30;;;21.00;54.90;;;;;;5031502;28;20029;-47
2020/12/23 05:15:59;;;;;;;0.47;0.38;;;21.00;54.90;;;;;;5030279;28;20075;-45
2020/12/23 05:18:35;;;;;;;0.95;0.50;;;20.90;54.80;;;;;;5031341;28;20108;-47
2020/12/23 05:21:14;;;;;;;0.77;0.40;;;20.90;54.80;;;;;;5030447;28;20038;-59
2020/12/23 05:23:47;;;;;;;1.33;0.43;;;21.00;54.90;;;;;;5025008;28;20079;-47
2020/12/23 05:26:15;;;;;;;0.63;0.40;;;20.90;54.90;;;;;;5031384;28;20374;-46
2020/12/23 05:28:41;;;;;;;0.90;0.60;;;20.90;54.90;;;;;;5031046;28;20029;-48
2020/12/23 05:31:09;;;;;;;0.47;0.40;;;20.90;54.80;;;;;;5030435;28;20037;-49
2020/12/23 05:33:36;;;;;;;1.10;0.52;;;21.00;54.90;;;;;;5030970;28;20038;-47
2020/12/23 05:36:15;;;;;;;0.60;0.40;;;21.00;54.90;;;;;;5029855;28;20122;-47
2020/12/23 05:38:41;;;;;;;0.65;0.45;;;20.90;54.80;;;;;;5045273;28;20095;-49
2020/12/23 05:41:09;;;;;;;0.90;0.45;;;20.90;54.80;;;;;;5030460;28;20034;-48
2020/12/23 05:43:35;;;;;;;1.70;0.30;;;20.90;54.80;;;;;;5030776;28;20514;-51
2020/12/23 05:46:04;;;;;;;1.90;0.40;;;20.90;54.80;;;;;;5031260;28;20541;-47
2020/12/23 05:48:35;;;;;;;1.52;0.40;;;20.90;54.80;;;;;;5034816;28;20033;-47
2020/12/23 05:51:01;;;;;;;2.17;0.47;;;20.90;54.80;;;;;;5033741;28;20048;-48
2020/12/23 05:53:28;;;;;;;0.85;0.50;;;20.90;54.90;;;;;;5034681;28;20032;-48
2020/12/23 05:55:54;;;;;;;0.73;0.40;;;20.90;54.80;;;;;;5033609;28;20129;-49
2020/12/23 05:58:26;;;;;;;1.00;0.50;;;20.90;54.80;;;;;;5034494;28;20083;-42
2020/12/23 06:00:55;;;;;;;0.68;0.55;;;20.90;54.80;;;;;;5033732;28;20038;-47
2020/12/23 06:03:42;;;;;;;0.85;0.57;;;20.90;54.80;;;;;;5034602;28;20382;-53
2020/12/23 06:06:08;;;;;;;0.57;0.57;;;20.90;54.80;;;;;;5033314;28;20120;-47
2020/12/23 06:08:38;;;;;;;0.80;0.40;;;20.90;54.80;;;;;;5034651;28;20021;-47
2020/12/23 06:11:13;;;;;;;0.47;0.40;;;20.90;54.80;;;;;;5033511;28;20025;-50
2020/12/23 06:14:07;;;;;;;0.75;0.43;;;20.90;54.80;;;;;;5034702;28;20496;-47
2020/12/23 06:16:34;;;;;;;0.70;0.50;;;20.90;54.80;;;;;;5034578;28;20040;-47
2020/12/23 06:19:02;;;;;;;1.05;0.85;;;20.90;54.80;;;;;;5033530;28;20072;-45
2020/12/23 06:21:28;;;;;;;0.55;0.50;;;20.90;54.80;;;;;;5033975;28;20065;-47
2020/12/23 06:24:06;;;;;;;0.40;0.30;;;20.90;54.80;;;;;;5033802;28;20119;-42
2020/12/23 06:26:34;;;;;;;1.25;0.40;;;20.90;54.80;;;;;;5034117;28;20028;-47
2020/12/23 06:29:02;;;;;;;1.55;0.50;;;20.90;54.80;;;;;;5033101;28;20466;-46
2020/12/23 06:31:31;;;;;;;0.95;0.40;;;20.90;54.70;;;;;;5034117;28;20053;-43
2020/12/23 06:33:58;;;;;;;1.05;0.50;;;20.90;54.70;;;;;;5033219;28;20064;-43
2020/12/23 06:36:31;;;;;;;0.68;0.40;;;20.90;54.70;;;;;;5033558;28;20157;-47
2020/12/23 06:39:20;;;;;;;0.93;0.50;;;20.90;54.70;;;;;;5032942;28;20025;-52
2020/12/23 06:41:47;;;;;;;1.05;0.50;;;20.90;54.60;;;;;;5033662;28;20053;-61
2020/12/23 06:44:12;;;;;;;2.25;0.40;;;20.90;54.70;;;;;;5033867;28;20029;-47
2020/12/23 06:47:00;;;;;;;1.52;0.70;;;20.90;54.70;;;;;;5033707;28;20025;-46
2020/12/23 06:49:40;;;;;;;1.58;0.50;;;20.90;54.70;;;;;;5033989;28;20030;-46
2020/12/23 06:52:29;;;;;;;0.47;0.47;;;20.90;54.60;;;;;;5023228;28;20026;-61
2020/12/23 06:55:07;;;;;;;5.38;0.65;;;20.90;54.80;;;;;;5032613;28;20026;-46
2020/12/23 06:57:36;;;;;;;0.60;0.40;;;20.90;54.80;;;;;;5031431;28;20434;-60
2020/12/23 07:00:05;;;;;;;2.03;0.40;;;20.90;54.70;;;;;;5032048;28;20084;-43
2020/12/23 07:02:40;;;;;;;0.90;0.50;;;20.90;54.70;;;;;;5029072;28;20025;-45
2020/12/23 07:05:06;;;;;;;1.13;0.40;;;21.00;54.70;;;;;;5028045;28;20617;-58
2020/12/23 07:07:42;;;;;;;0.60;0.40;;;21.00;54.70;;;;;;5032423;28;20034;-50
2020/12/23 07:10:17;;;;;;;0.65;0.30;;;21.00;54.60;;;;;;5032860;28;20086;-46
2020/12/23 07:12:47;;;;;;;1.40;0.40;;;21.00;54.60;;;;;;5033236;28;20030;-48
2020/12/23 07:15:18;;;;;;;1.13;0.55;;;21.00;54.60;;;;;;5033092;28;20474;-44
2020/12/23 07:17:44;;;;;;;0.85;0.50;;;21.00;54.60;;;;;;5032942;28;20141;-44
2020/12/23 07:20:13;;;;;;;8.85;0.60;;;21.00;54.60;;;;;;5033042;28;20039;-46
2020/12/23 07:22:39;;;;;;;1.10;0.50;;;21.00;54.70;;;;;;5028433;28;20381;-46
2020/12/23 07:25:06;;;;;;;1.38;0.50;;;21.10;54.80;;;;;;5032521;28;20877;-47
2020/12/23 07:27:32;;;;;;;1.08;0.70;;;21.10;54.70;;;;;;5032928;28;20018;-48
2020/12/23 07:30:06;;;;;;;2.25;0.82;;;21.20;54.80;;;;;;5032085;28;20045;-45
2020/12/23 07:32:32;;;;;;;1.30;0.55;;;21.20;55.00;;;;;;5032745;28;20021;-45
2020/12/23 07:34:59;;;;;;;3.28;0.50;;;21.20;55.40;;;;;;5031994;28;20037;-46
2020/12/23 07:37:37;;;;;;;2.20;0.60;;;21.20;55.10;;;;;;5032418;28;20033;-47
2020/12/23 07:40:15;;;;;;;0.85;0.52;;;21.20;55.00;;;;;;5032269;28;20100;-47
2020/12/23 07:42:46;;;;;;;0.80;0.38;;;21.20;55.00;;;;;;5032548;28;20115;-46
2020/12/23 07:45:12;;;;;;;0.70;0.40;;;21.20;54.90;;;;;;5032848;28;20041;-47
2020/12/23 07:47:38;;;;;;;2.50;0.55;;;21.30;54.90;;;;;;5032024;28;20124;-45
2020/12/23 07:50:05;;;;;;;1.15;0.68;;;21.30;54.90;;;;;;5031739;28;20449;-46
2020/12/23 07:52:31;;;;;;;7.28;0.75;;;21.30;54.80;;;;;;5032198;28;20044;-51
2020/12/23 07:55:13;;;;;;;2.47;0.50;;;21.30;54.80;;;;;;5031805;28;20374;-41
2020/12/23 07:57:39;;;;;;;;;;;21.40;55.00;;;;;;5032146;28;20497;-56
2020/12/23 08:00:12;;;;;;;0.57;0.50;;;21.40;55.00;;;;;;5031415;28;19917;-47
2020/12/23 08:02:38;;;;;;;1.10;0.45;;;21.30;54.80;;;;;;5032258;28;20049;-45
2020/12/23 08:05:05;;;;;;;1.63;0.70;;;21.40;54.80;;;;;;5031238;28;20097;-43
2020/12/23 08:07:31;;;;;;;0.70;0.50;;;21.40;54.80;;;;;;5032194;28;20132;-41
2020/12/23 08:10:09;;;;;;;2.17;0.50;;;21.40;54.70;;;;;;5030468;28;20108;-47
2020/12/23 08:12:35;;;;;;;0.63;0.52;;;21.40;54.60;;;;;;5032176;28;20029;-44
2020/12/23 08:15:07;;;;;;;2.30;0.40;;;21.40;54.50;;;;;;5031350;28;20060;-52
2020/12/23 08:17:32;;;;;;;1.55;0.70;;;21.40;54.50;;;;;;5024544;28;20033;-51
2020/12/23 08:20:07;;;;;;;0.63;0.40;;;21.40;54.50;;;;;;5031276;28;20091;-50
2020/12/23 08:22:34;;;;;;;0.65;0.55;;;21.40;54.50;;;;;;5032360;28;20417;-46
2020/12/23 08:25:05;;;;;;;0.73;0.50;;;21.40;54.40;;;;;;5030928;28;20035;-45
2020/12/23 08:27:32;;;;;;;0.57;0.50;;;21.50;54.40;;;;;;5031583;28;20049;-48
2020/12/23 08:29:59;;;;;;;1.55;0.40;;;21.50;54.70;;;;;;5045711;28;20033;-47
2020/12/23 08:32:29;;;;;;;2.95;0.98;;;21.50;54.30;;;;;;5024546;28;20476;-41
2020/12/23 08:34:59;;;;;;;1.17;0.40;;;21.50;54.40;;;;;;5030665;28;20033;-61
2020/12/23 08:37:24;;;;;;;1.98;0.40;;;21.50;54.30;;;;;;5031815;28;20413;-44
2020/12/23 08:39:58;;;;;;;1.05;0.52;;;21.50;54.60;;;;;;5031485;28;20038;-43
2020/12/23 08:42:24;;;;;;;0.47;0.40;;;21.60;54.40;;;;;;5031145;28;20558;-45
2020/12/23 08:44:52;;;;;;;0.90;0.50;;;21.60;54.30;;;;;;5031787;28;20030;-49
2020/12/23 08:47:32;;;;;;;2.05;0.32;;;21.50;54.70;;;;;;5031209;28;20040;-45
2020/12/23 08:49:59;;;;;;;1.02;0.38;;;21.50;54.50;;;;;;5031009;28;20029;-44
2020/12/23 08:52:26;;;;;;;0.80;0.40;;;21.60;54.40;;;;;;5031417;28;20494;-43
2020/12/23 08:54:52;;;;;;;1.73;0.52;;;21.50;54.40;;;;;;5030875;28;20056;-60
2020/12/23 08:57:26;;;;;;;1.23;0.50;;;21.50;54.30;;;;;;5030949;28;20036;-46
2020/12/23 08:59:53;;;;;;;0.60;0.60;;;21.60;54.80;;;;;;5031301;28;20053;-57
2020/12/23 09:02:19;;;;;;;3.28;0.70;;;21.60;54.80;;;;;;5031375;28;20025;-45
2020/12/23 09:04:45;;;;;;;0.60;0.47;;;21.60;54.70;;;;;;5031064;28;20144;-38
2020/12/23 09:07:12;;;;;;;1.45;0.70;;;21.60;55.30;;;;;;5030521;28;20032;-45
2020/12/23 09:09:37;;;;;;;3.03;0.77;;;21.60;54.50;;;;;;5031437;28;20421;-51
2020/12/23 09:12:04;;;;;;;4.93;0.63;;;21.50;54.60;;;;;;5031994;28;20032;-44
2020/12/23 09:14:33;;;;;;;1.35;0.60;;;21.50;55.10;;;;;;5031215;28;20053;-49
2020/12/23 09:17:08;;;;;;;2.33;1.27;;;21.50;55.40;;;;;;5030191;28;20374;-59
2020/12/23 09:20:00;;;;;;;3.95;0.80;;;21.50;55.40;;;;;;5029409;28;20025;-50
2020/12/23 09:22:28;;;;;;;3.67;0.60;;;21.50;55.60;;;;;;5034451;28;20493;-42
2020/12/23 09:25:16;;;;;;;4.35;0.45;;;21.50;55.70;;;;;;5034931;28;20033;-55
2020/12/23 09:27:49;;;;;;;2.42;0.65;;;21.60;55.60;;;;;;5027873;28;20119;-44
2020/12/23 09:30:32;;;;;;;1.13;0.40;;;21.60;55.50;;;;;;5033580;28;20207;-51
2020/12/23 09:32:58;;;;;;;1.15;0.65;;;21.60;55.70;;;;;;5034034;28;20064;-45
2020/12/23 09:35:26;;;;;;;2.75;1.10;;;21.50;55.70;;;;;;5034705;28;20081;-58
2020/12/23 09:38:04;;;;;;;5.43;0.77;;;21.50;55.90;;;;;;5035135;28;20382;-49
2020/12/23 09:40:29;;;;;;;2.88;0.40;;;21.50;55.90;;;;;;5049703;28;20032;-46
2020/12/23 09:42:56;;;;;;;0.90;0.50;;;21.50;55.90;;;;;;5034022;28;20108;-62
2020/12/23 09:45:21;;;;;;;7.95;0.95;;;21.50;56.00;;;;;;5034064;28;20080;-44
2020/12/23 09:47:47;;;;;;;2.35;0.60;;;21.50;56.10;;;;;;5035217;28;20037;-48
2020/12/23 09:50:13;;;;;;;3.40;0.38;;;21.50;56.30;;;;;;5035212;28;20104;-48
2020/12/23 09:52:38;;;;;;;2.08;0.45;;;21.50;56.10;;;;;;5034835;28;20036;-49
2020/12/23 09:55:07;;;;;;;1.05;0.55;;;21.50;56.00;;;;;;5033908;28;20470;-45
2020/12/23 09:57:33;;;;;;;1.85;0.52;;;21.50;55.90;;;;;;5034759;28;20405;-43
2020/12/23 09:59:59;;;;;;;0.85;0.30;;;21.50;55.70;;;;;;5033666;28;20474;-48
2020/12/23 10:02:25;;;;;;;2.10;0.40;;;21.50;55.80;;;;;;5034104;28;20121;-46
2020/12/23 10:04:50;;;;;;;2.92;0.43;;;21.50;55.70;;;;;;5034303;28;20395;-44
2020/12/23 10:07:19;;;;;;;1.80;0.50;;;21.50;55.70;;;;;;5033452;28;20061;-58
2020/12/23 10:09:45;;;;;;;4.70;0.57;;;21.50;55.60;;;;;;5026853;28;20068;-47
2020/12/23 10:12:11;;;;;;;1.13;0.65;;;21.50;55.60;;;;;;5033392;28;20080;-46
2020/12/23 10:14:36;;;;;;;3.25;0.80;;;21.60;55.60;;;;;;5034586;28;20368;-45
2020/12/23 10:17:02;;;;;;;2.17;0.60;;;21.60;55.50;;;;;;5033663;28;20463;-47
2020/12/23 10:19:28;;;;;;;2.20;0.60;;;21.60;55.60;;;;;;5033270;28;20026;-46
2020/12/23 10:21:53;;;;;;;3.55;0.90;;;21.60;55.50;;;;;;5049395;28;20381;-47
2020/12/23 10:24:19;;;;;;;2.80;0.60;;;21.60;55.50;;;;;;5033151;28;20025;-47
2020/12/23 10:26:51;;;;;;;8.75;1.13;;;21.70;55.40;;;;;;5034297;28;20029;-45
2020/12/23 10:29:17;;;;;;;3.20;0.60;;;21.60;55.40;;;;;;5025251;28;20108;-46
2020/12/23 10:31:43;;;;;;;1.63;0.52;;;21.70;55.60;;;;;;5033682;28;20040;-46
2020/12/23 10:34:08;;;;;;;5.15;0.55;;;21.70;55.70;;;;;;5032569;28;20108;-45
2020/12/23 10:36:34;;;;;;;1.13;0.60;;;21.70;55.40;;;;;;5033973;28;20081;-46
2020/12/23 10:39:01;;;;;;;3.22;0.57;;;21.70;55.20;;;;;;5033060;28;20029;-55
2020/12/23 10:41:27;;;;;;;0.80;0.60;;;21.70;55.30;;;;;;5033600;28;20112;-44
2020/12/23 10:43:53;;;;;;;3.60;0.70;;;21.70;55.30;;;;;;5032559;28;20060;-46
2020/12/23 10:46:18;;;;;;;4.82;0.50;;;21.70;55.50;;;;;;5033075;28;20037;-53
2020/12/23 10:48:44;;;;;;;2.42;0.60;;;21.70;55.30;;;;;;5049113;28;20517;-47
2020/12/23 10:51:10;;;;;;;4.93;0.93;;;21.70;55.40;;;;;;5033218;28;20030;-46
2020/12/23 10:53:36;;;;;;;4.97;0.60;;;21.70;55.30;;;;;;5033454;28;20414;-43
2020/12/23 10:56:02;;;;;;;3.22;0.57;;;21.60;55.20;;;;;;5032811;28;20343;-60
2020/12/23 10:58:28;;;;;;;3.90;0.80;;;21.70;55.20;;;;;;5033557;28;20390;-47
2020/12/23 11:00:54;;;;;;;11.43;1.73;;;21.70;55.10;;;;;;5032322;28;20041;-46
2020/12/23 11:03:20;;;;;;;3.20;0.85;;;21.70;55.10;;;;;;5032699;28;20493;-42
2020/12/23 11:05:46;;;;;;;5.07;0.65;;;21.70;55.10;;;;;;5033225;28;20112;-51
2020/12/23 11:08:11;;;;;;;2.45;0.70;;;21.70;54.80;;;;;;5032333;28;20149;-46
2020/12/23 11:10:37;;;;;;;3.28;0.80;;;21.70;54.70;;;;;;5033624;28;20044;-46
2020/12/23 11:13:03;;;;;;;3.75;0.75;;;21.70;54.70;;;;;;5032859;28;20033;-45
2020/12/23 11:15:28;;;;;;;5.05;0.70;;;21.70;55.10;;;;;;5033097;28;20391;-46
2020/12/23 11:17:54;;;;;;;1.48;0.80;;;21.70;54.70;;;;;;5033285;28;20033;-44
2020/12/23 11:20:20;;;;;;;3.88;0.77;;;21.70;55.00;;;;;;5032037;28;20617;-49
2020/12/23 11:22:48;;;;;;;1.73;0.60;;;21.70;54.80;;;;;;5032948;28;20025;-50
2020/12/23 11:25:14;;;;;;;5.03;0.60;;;21.70;55.50;;;;;;5032589;28;20099;-47
2020/12/23 11:27:41;;;;;;;2.50;0.80;;;21.70;54.90;;;;;;5033117;28;20022;-54
2020/12/23 11:30:07;;;;;;;3.22;1.02;;;21.80;54.90;;;;;;5032481;28;20029;-47
2020/12/23 11:32:32;;;;;;;2.97;0.70;;;21.80;55.30;;;;;;5032827;28;20030;-46
2020/12/23 11:34:58;;;;;;;2.83;0.85;;;21.80;55.00;;;;;;5032604;28;20036;-62
2020/12/23 11:37:24;;;;;;;2.97;0.90;;;21.80;54.90;;;;;;5032516;28;20302;-53
2020/12/23 11:39:49;;;;;;;1.83;1.23;;;21.80;55.10;;;;;;5032588;28;20044;-50
2020/12/23 11:42:16;;;;;;;1.38;0.85;;;21.80;54.90;;;;;;5031853;28;20087;-52
2020/12/23 11:44:42;;;;;;;5.97;1.08;;;21.80;55.00;;;;;;5032408;28;20096;-52
2020/12/23 11:47:08;;;;;;;3.10;0.80;;;21.80;55.00;;;;;;5031651;28;20502;-51
2020/12/23 11:49:34;;;;;;;4.53;0.80;;;21.80;55.10;;;;;;5031349;28;20025;-48
2020/12/23 11:51:59;;;;;;;2.17;0.82;;;21.80;54.90;;;;;;5032008;28;20036;-64
2020/12/23 11:54:25;;;;;;;4.15;0.90;;;21.80;54.80;;;;;;5032055;28;20025;-53
2020/12/23 11:56:51;;;;;;;7.80;0.90;;;21.80;54.90;;;;;;5032357;28;20033;-47
2020/12/23 11:59:17;;;;;;;5.35;0.88;;;21.80;54.90;;;;;;5047008;28;20487;-54
2020/12/23 12:01:43;;;;;;;5.63;1.17;;;21.80;55.00;;;;;;5032351;28;20053;-50
2020/12/23 12:04:11;;;;;;;8.93;1.17;;;21.80;54.90;;;;;;5031337;28;20028;-49
2020/12/23 12:06:37;;;;;;;2.38;0.80;;;21.80;54.80;;;;;;5032070;28;20026;-52
2020/12/23 12:09:03;;;;;;;2.92;0.80;;;21.80;55.00;;;;;;5031331;28;20060;-66
2020/12/23 12:11:29;;;;;;;0.93;0.80;;;21.70;54.80;;;;;;5031111;28;20415;-51
2020/12/23 12:13:55;;;;;;;4.22;0.82;;;21.70;55.60;;;;;;5030443;28;20040;-43
2020/12/23 12:16:21;;;;;;;1.77;0.73;;;21.80;55.00;;;;;;5031476;28;20060;-51
2020/12/23 12:18:46;;;;;;;1.67;0.75;;;21.70;55.00;;;;;;5031409;28;20109;-40
2020/12/23 12:21:12;;;;;;;6.32;1.08;;;21.80;54.90;;;;;;5031241;28;20099;-49
2020/12/23 12:23:38;;;;;;;6.82;1.15;;;21.80;54.20;;;;;;5032177;28;20030;-53
2020/12/23 12:26:04;;;;;;;4.95;0.90;;;21.70;54.50;;;;;;5031596;28;20056;-64
2020/12/23 12:28:29;;;;;;;3.45;0.75;;;21.70;54.40;;;;;;5031699;28;20116;-55
2020/12/23 12:30:55;;;;;;;2.00;0.80;;;21.70;54.60;;;;;;5047126;28;20030;-54
2020/12/23 12:33:20;;;;;;;1.52;0.68;;;21.70;54.60;;;;;;5031670;28;20021;-55
2020/12/23 12:35:46;;;;;;;1.58;0.68;;;21.70;54.60;;;;;;5032898;28;20104;-55
2020/12/23 12:38:12;;;;;;;4.65;0.95;;;21.70;54.70;;;;;;5029608;28;20026;-52
2020/12/23 12:40:37;;;;;;;3.55;0.82;;;21.80;54.60;;;;;;5031579;28;20080;-48
2020/12/23 12:43:04;;;;;;;4.20;0.98;;;21.80;54.90;;;;;;5045768;28;20037;-68
2020/12/23 12:45:30;;;;;;;2.60;0.88;;;21.80;54.70;;;;;;5031477;28;20033;-50
2020/12/23 12:47:56;;;;;;;1.77;0.88;;;21.80;54.80;;;;;;5031784;28;20025;-50
2020/12/23 12:50:21;;;;;;;2.58;0.90;;;21.80;54.90;;;;;;5030293;28;20032;-47